createdAt,value
2023-05-03T00:00:08.402Z,13.68
2023-05-03T00:02:13.076Z,13.76
2023-05-03T00:04:17.010Z,13.79
2023-05-03T00:06:19.846Z,13.68
2023-05-03T00:08:22.046Z,13.65
2023-05-03T00:10:23.789Z,13.61
2023-05-03T00:12:25.457Z,13.41
2023-05-03T00:14:27.307Z,13.36
2023-05-03T00:16:29.001Z,13.38
2023-05-03T00:18:30.781Z,13.25
2023-05-03T00:20:33.344Z,13.19
2023-05-03T00:22:35.512Z,13.26
2023-05-03T00:24:37.103Z,13.19
2023-05-03T00:26:38.686Z,13.07
2023-05-03T00:28:40.355Z,13.08
2023-05-03T00:30:41.919Z,13.08
2023-05-03T00:32:43.725Z,13.13
2023-05-03T00:34:45.767Z,13.14
2023-05-03T00:36:47.416Z,13.21
2023-05-03T00:38:49.014Z,13.11
2023-05-03T00:40:56.383Z,13.03
2023-05-03T00:42:57.972Z,12.97
2023-05-03T00:44:59.589Z,12.91
2023-05-03T00:47:01.466Z,12.99
2023-05-03T00:49:03.146Z,12.99
2023-05-03T00:51:05.877Z,12.99
2023-05-03T00:53:07.450Z,13.06
2023-05-03T00:55:09.932Z,13.01
2023-05-03T00:57:11.988Z,13.07
2023-05-03T00:59:13.885Z,13.10
2023-05-03T01:01:15.543Z,13.10
2023-05-03T01:03:17.473Z,13.02
2023-05-03T01:05:19.221Z,12.97
2023-05-03T01:07:55.678Z,13.04
2023-05-03T01:10:05.331Z,13.04
2023-05-03T01:12:36.352Z,12.92
2023-05-03T01:15:03.079Z,12.95
2023-05-03T01:17:14.727Z,12.86
2023-05-03T01:19:29.275Z,12.90
2023-05-03T01:21:31.632Z,12.80
2023-05-03T01:23:40.396Z,12.86
2023-05-03T01:25:42.225Z,12.83
2023-05-03T01:27:43.894Z,12.80
2023-05-03T01:29:45.783Z,12.73
2023-05-03T01:32:00.971Z,12.69
2023-05-03T01:34:18.777Z,12.59
2023-05-03T01:36:41.284Z,12.46
2023-05-03T01:38:43.185Z,12.35
2023-05-03T01:40:51.386Z,12.37
2023-05-03T01:42:55.677Z,12.43
2023-05-03T01:44:57.494Z,12.44
2023-05-03T01:46:59.184Z,12.51
2023-05-03T01:49:00.830Z,12.47
2023-05-03T01:51:02.568Z,12.23
2023-05-03T01:53:04.142Z,12.20
2023-05-03T01:55:06.404Z,12.24
2023-05-03T01:57:08.059Z,12.28
2023-05-03T01:59:09.668Z,12.25
2023-05-03T02:01:11.302Z,12.35
2023-05-03T02:03:12.944Z,12.36
2023-05-03T02:05:14.705Z,12.24
2023-05-03T02:07:16.296Z,12.22
2023-05-03T02:09:18.462Z,12.21
2023-05-03T02:11:21.710Z,12.25
2023-05-03T02:13:23.378Z,12.24
2023-05-03T02:15:24.967Z,12.22
2023-05-03T02:17:26.644Z,12.13
2023-05-03T02:19:28.309Z,12.08
2023-05-03T02:21:29.898Z,12.10
2023-05-03T02:23:31.501Z,12.06
2023-05-03T02:25:33.139Z,11.92
2023-05-03T02:27:34.740Z,11.92
2023-05-03T02:29:36.573Z,11.75
2023-05-03T02:31:38.126Z,11.77
2023-05-03T02:33:40.132Z,11.81
2023-05-03T02:35:41.831Z,11.70
2023-05-03T02:37:43.744Z,11.77
2023-05-03T02:39:45.381Z,11.72
2023-05-03T02:41:47.220Z,11.79
2023-05-03T02:43:48.835Z,11.83
2023-05-03T02:45:50.460Z,11.85
2023-05-03T02:47:52.116Z,11.77
2023-05-03T02:49:53.716Z,11.72
2023-05-03T02:51:56.757Z,11.73
2023-05-03T02:53:58.439Z,11.71
2023-05-03T02:56:00.043Z,11.79
2023-05-03T02:58:01.752Z,11.81
2023-05-03T03:00:05.862Z,11.65
2023-05-03T03:02:07.721Z,11.70
2023-05-03T03:04:09.849Z,11.72
2023-05-03T03:06:11.622Z,11.82
2023-05-03T03:08:13.284Z,11.83
2023-05-03T03:10:14.876Z,11.71
2023-05-03T03:12:16.467Z,11.59
2023-05-03T03:14:18.098Z,11.75
2023-05-03T03:16:19.881Z,11.74
2023-05-03T03:18:21.600Z,11.82
2023-05-03T03:20:23.178Z,11.97
2023-05-03T03:22:25.768Z,11.97
2023-05-03T03:24:27.471Z,12.06
2023-05-03T03:26:29.135Z,12.09
2023-05-03T03:28:30.744Z,12.11
2023-05-03T03:30:32.288Z,12.12
2023-05-03T03:32:34.014Z,12.01
2023-05-03T03:34:35.772Z,11.90
2023-05-03T03:36:38.040Z,11.82
2023-05-03T03:38:41.215Z,11.64
2023-05-03T03:40:42.821Z,11.52
2023-05-03T03:42:44.470Z,11.53
2023-05-03T03:44:46.103Z,11.47
2023-05-03T03:46:47.741Z,11.47
2023-05-03T03:48:49.408Z,11.44
2023-05-03T03:50:51.363Z,11.57
2023-05-03T03:52:53.002Z,11.56
2023-05-03T03:54:54.588Z,11.63
2023-05-03T03:56:56.236Z,11.80
2023-05-03T03:58:57.864Z,11.86
2023-05-03T04:01:00.787Z,11.90
2023-05-03T04:03:03.146Z,11.94
2023-05-03T04:05:08.159Z,11.91
2023-05-03T04:07:09.853Z,11.88
2023-05-03T04:09:11.491Z,11.87
2023-05-03T04:11:13.309Z,11.75
2023-05-03T04:13:14.961Z,11.63
2023-05-03T04:15:16.631Z,11.56
2023-05-03T04:17:18.231Z,11.57
2023-05-03T04:19:22.006Z,11.62
2023-05-03T04:21:23.627Z,11.58
2023-05-03T04:23:25.286Z,11.59
2023-05-03T04:25:27.843Z,11.60
2023-05-03T04:27:30.209Z,11.53
2023-05-03T04:29:31.874Z,11.43
2023-05-03T04:31:33.491Z,11.53
2023-05-03T04:33:35.284Z,11.45
2023-05-03T04:35:37.083Z,11.55
2023-05-03T04:37:40.169Z,11.66
2023-05-03T04:39:41.771Z,11.65
2023-05-03T04:41:43.362Z,11.71
2023-05-03T04:43:44.931Z,11.59
2023-05-03T04:45:46.540Z,11.44
2023-05-03T04:47:48.395Z,11.52
2023-05-03T04:49:50.112Z,11.42
2023-05-03T04:51:51.658Z,11.40
2023-05-03T04:53:53.307Z,11.37
2023-05-03T04:55:54.896Z,11.50
2023-05-03T04:57:56.754Z,11.43
2023-05-03T04:59:58.458Z,11.48
2023-05-03T05:02:00.269Z,11.44
2023-05-03T05:04:02.042Z,11.52
2023-05-03T05:06:03.975Z,11.64
2023-05-03T05:08:05.790Z,11.60
2023-05-03T05:10:08.267Z,11.65
2023-05-03T05:12:09.950Z,11.57
2023-05-03T05:14:11.733Z,11.62
2023-05-03T05:16:13.346Z,11.54
2023-05-03T05:18:14.916Z,11.42
2023-05-03T05:20:17.698Z,11.26
2023-05-03T05:22:20.986Z,11.21
2023-05-03T05:24:22.743Z,11.19
2023-05-03T05:26:24.416Z,11.25
2023-05-03T05:28:28.045Z,11.30
2023-05-03T05:30:29.594Z,11.40
2023-05-03T05:32:31.420Z,11.39
2023-05-03T05:34:42.141Z,11.42
2023-05-03T05:36:46.442Z,11.46
2023-05-03T05:38:48.052Z,11.61
2023-05-03T05:40:49.614Z,11.75
2023-05-03T05:42:51.358Z,11.78
2023-05-03T05:44:52.970Z,11.81
2023-05-03T05:46:54.600Z,11.82
2023-05-03T05:48:56.188Z,11.87
2023-05-03T05:50:57.816Z,11.99
2023-05-03T05:52:59.463Z,11.96
2023-05-03T05:55:01.292Z,11.95
2023-05-03T05:57:03.182Z,11.75
2023-05-03T05:59:06.102Z,11.73
2023-05-03T06:01:08.574Z,11.82
2023-05-03T06:03:10.256Z,11.96
2023-05-03T06:05:12.031Z,11.87
2023-05-03T06:07:14.673Z,11.92
2023-05-03T06:09:24.126Z,11.98
2023-05-03T06:11:26.835Z,12.07
2023-05-03T06:13:28.572Z,12.12
2023-05-03T06:15:30.147Z,12.22
2023-05-03T06:17:31.867Z,12.23
2023-05-03T06:19:33.564Z,12.13
2023-05-03T06:21:35.595Z,12.09
2023-05-03T06:23:39.606Z,12.12
2023-05-03T06:25:41.213Z,12.06
2023-05-03T06:27:42.848Z,12.05
2023-05-03T06:29:45.002Z,12.02
2023-05-03T06:31:46.755Z,11.89
2023-05-03T06:33:48.445Z,12.01
2023-05-03T06:35:50.078Z,12.21
2023-05-03T06:37:52.164Z,12.04
2023-05-03T06:39:53.774Z,11.90
2023-05-03T06:41:55.524Z,11.82
2023-05-03T06:43:57.155Z,11.86
2023-05-03T06:45:58.796Z,11.80
2023-05-03T06:48:00.393Z,11.79
2023-05-03T06:50:02.279Z,11.58
2023-05-03T06:52:04.331Z,11.63
2023-05-03T06:54:09.910Z,11.56
2023-05-03T06:56:11.517Z,11.57
2023-05-03T06:58:13.122Z,11.51
2023-05-03T07:00:15.958Z,11.63
2023-05-03T07:02:18.173Z,11.75
2023-05-03T07:04:19.801Z,11.81
2023-05-03T07:06:23.218Z,11.69
2023-05-03T07:08:24.859Z,11.73
2023-05-03T07:10:30.758Z,11.81
2023-05-03T07:12:32.664Z,11.88
2023-05-03T07:14:34.314Z,11.97
2023-05-03T07:16:35.977Z,12.13
2023-05-03T07:18:37.594Z,12.27
2023-05-03T07:20:39.355Z,12.40
2023-05-03T07:22:41.142Z,12.37
2023-05-03T07:24:42.870Z,12.31
2023-05-03T07:26:44.728Z,12.35
2023-05-03T07:28:47.121Z,12.41
2023-05-03T07:30:48.773Z,12.42
2023-05-03T07:32:50.867Z,12.55
2023-05-03T07:34:52.527Z,12.43
2023-05-03T07:36:54.170Z,12.43
2023-05-03T07:38:58.592Z,12.63
2023-05-03T07:41:00.390Z,12.78
2023-05-03T07:43:02.029Z,12.75
2023-05-03T07:45:03.829Z,12.89
2023-05-03T07:47:05.650Z,13.08
2023-05-03T07:49:07.262Z,13.10
2023-05-03T07:51:08.859Z,13.18
2023-05-03T07:53:11.632Z,13.30
2023-05-03T07:55:13.246Z,13.37
2023-05-03T07:57:16.277Z,13.50
2023-05-03T07:59:17.893Z,13.58
2023-05-03T08:01:20.489Z,13.57
2023-05-03T08:03:22.258Z,13.56
2023-05-03T08:05:24.048Z,13.54
2023-05-03T08:07:25.938Z,13.62
2023-05-03T08:09:28.322Z,13.71
2023-05-03T08:11:30.009Z,13.80
2023-05-03T08:13:31.670Z,13.88
2023-05-03T08:15:33.799Z,13.97
2023-05-03T08:17:43.081Z,14.04
2023-05-03T08:19:45.247Z,13.85
2023-05-03T08:21:49.600Z,13.70
2023-05-03T08:23:51.209Z,13.73
2023-05-03T08:25:52.876Z,13.93
2023-05-03T08:27:55.635Z,14.03
2023-05-03T08:29:57.254Z,14.25
2023-05-03T08:31:59.181Z,14.45
2023-05-03T08:34:01.690Z,14.71
2023-05-03T08:36:03.367Z,14.93
2023-05-03T08:38:05.354Z,15.05
2023-05-03T08:40:08.467Z,15.10
2023-05-03T08:42:10.092Z,15.39
2023-05-03T08:44:12.588Z,15.38
2023-05-03T08:46:14.817Z,15.59
2023-05-03T08:48:16.695Z,15.76
2023-05-03T08:50:18.345Z,15.84
2023-05-03T08:52:21.287Z,15.88
2023-05-03T08:54:24.296Z,15.91
2023-05-03T08:56:43.248Z,15.67
2023-05-03T08:58:44.862Z,15.70
2023-05-03T09:00:46.685Z,15.81
2023-05-03T09:02:50.301Z,15.79
2023-05-03T09:04:52.344Z,15.86
2023-05-03T09:07:07.409Z,15.76
2023-05-03T09:09:09.761Z,15.81
2023-05-03T09:11:28.044Z,15.86
2023-05-03T09:13:31.813Z,15.97
2023-05-03T09:15:33.542Z,15.80
2023-05-03T09:17:35.266Z,15.94
2023-05-03T09:19:53.588Z,16.08
2023-05-03T09:22:06.906Z,16.44
2023-05-03T09:24:16.519Z,16.67
2023-05-03T09:26:28.403Z,16.65
2023-05-03T09:28:30.051Z,16.73
2023-05-03T09:30:31.779Z,16.31
2023-05-03T09:32:47.995Z,15.29
2023-05-03T09:34:49.576Z,15.16
2023-05-03T09:36:51.181Z,15.25
2023-05-03T09:38:52.960Z,15.39
2023-05-03T09:40:54.576Z,15.67
2023-05-03T09:43:09.861Z,15.91
2023-05-03T09:45:11.769Z,16.08
2023-05-03T09:47:13.456Z,16.32
2023-05-03T09:49:18.039Z,16.65
2023-05-03T09:51:20.164Z,16.95
2023-05-03T09:53:22.117Z,17.05
2023-05-03T09:55:24.264Z,16.72
2023-05-03T09:57:26.777Z,16.99
2023-05-03T09:59:28.992Z,17.27
2023-05-03T10:01:32.046Z,17.31
2023-05-03T10:03:44.524Z,17.16
2023-05-03T10:05:49.969Z,16.98
2023-05-03T10:07:53.520Z,16.78
2023-05-03T10:09:58.147Z,16.98
2023-05-03T10:12:02.305Z,17.15
2023-05-03T10:14:07.764Z,17.46
2023-05-03T10:16:13.964Z,17.49
2023-05-03T10:18:17.044Z,17.76
2023-05-03T10:20:28.617Z,17.71
2023-05-03T10:22:31.350Z,17.01
2023-05-03T10:24:33.743Z,17.05
2023-05-03T10:26:35.352Z,17.04
2023-05-03T10:28:39.804Z,17.09
2023-05-03T10:30:41.575Z,16.67
2023-05-03T10:32:44.596Z,16.10
2023-05-03T10:34:46.492Z,16.07
2023-05-03T10:36:50.595Z,16.31
2023-05-03T10:38:53.224Z,16.38
2023-05-03T10:40:55.736Z,16.72
2023-05-03T10:42:57.740Z,17.01
2023-05-03T10:45:01.487Z,17.31
2023-05-03T10:47:20.382Z,17.44
2023-05-03T10:49:26.612Z,17.50
2023-05-03T10:51:37.557Z,17.60
2023-05-03T10:53:41.178Z,17.36
2023-05-03T10:56:05.902Z,17.19
2023-05-03T10:58:12.827Z,17.21
2023-05-03T11:00:17.293Z,17.30
2023-05-03T11:02:22.682Z,17.39
2023-05-03T11:04:34.223Z,17.57
2023-05-03T11:06:38.060Z,17.37
2023-05-03T11:08:40.322Z,17.25
2023-05-03T11:10:42.058Z,17.29
2023-05-03T11:12:43.639Z,17.40
2023-05-03T11:14:45.228Z,17.63
2023-05-03T11:16:51.818Z,17.71
2023-05-03T11:18:54.161Z,17.88
2023-05-03T11:20:56.033Z,17.99
2023-05-03T11:22:57.702Z,18.12
2023-05-03T11:24:59.324Z,18.16
2023-05-03T11:27:07.952Z,18.21
2023-05-03T11:29:10.865Z,17.95
2023-05-03T11:31:13.543Z,18.03
2023-05-03T11:33:15.149Z,17.82
2023-05-03T11:35:17.979Z,17.87
2023-05-03T11:37:19.670Z,17.95
2023-05-03T11:39:21.644Z,18.04
2023-05-03T11:41:23.276Z,18.22
2023-05-03T11:43:25.900Z,18.28
2023-05-03T11:45:32.829Z,18.71
2023-05-03T11:47:34.739Z,19.09
2023-05-03T11:49:36.422Z,19.16
2023-05-03T11:51:38.462Z,19.18
2023-05-03T11:53:42.491Z,19.06
2023-05-03T11:55:46.597Z,19.09
2023-05-03T11:57:48.247Z,18.94
2023-05-03T11:59:50.223Z,18.78
2023-05-03T12:01:53.455Z,18.51
2023-05-03T12:03:59.069Z,18.25
2023-05-03T12:06:02.597Z,17.91
2023-05-03T12:08:05.724Z,17.93
2023-05-03T12:10:22.852Z,17.89
2023-05-03T12:12:31.952Z,17.77
2023-05-03T12:15:03.113Z,17.51
2023-05-03T12:17:07.424Z,17.58
2023-05-03T12:19:09.640Z,17.61
2023-05-03T12:23:17.179Z,17.37
2023-05-03T12:25:20.916Z,17.28
2023-05-03T12:27:23.929Z,17.25
2023-05-03T12:29:26.823Z,17.08
2023-05-03T12:31:33.442Z,16.85
2023-05-03T12:33:38.638Z,16.73
2023-05-03T12:35:41.560Z,16.57
2023-05-03T12:37:43.851Z,16.49
2023-05-03T12:39:50.077Z,16.53
2023-05-03T12:44:03.045Z,16.47
2023-05-03T12:48:09.455Z,16.61
2023-05-03T12:50:12.705Z,16.65
2023-05-03T12:54:19.393Z,16.41
2023-05-03T12:56:24.514Z,16.32
2023-05-03T12:58:43.242Z,16.30
2023-05-03T13:01:27.965Z,16.24
2023-05-03T13:03:21.471Z,16.35
2023-05-03T13:05:34.677Z,16.42
2023-05-03T13:07:42.494Z,16.41
2023-05-03T13:11:53.231Z,16.36
2023-05-03T13:13:54.883Z,16.32
2023-05-03T13:15:56.514Z,16.26
2023-05-03T13:18:01.567Z,16.23
2023-05-03T13:20:07.427Z,16.25
2023-05-03T13:22:09.550Z,16.17
2023-05-03T13:24:11.221Z,15.99
2023-05-03T13:26:12.796Z,15.86
2023-05-03T13:28:14.443Z,15.71
2023-05-03T13:30:16.598Z,15.72
2023-05-03T13:32:18.347Z,15.74
2023-05-03T13:34:20.034Z,15.68
2023-05-03T13:36:22.786Z,15.60
2023-05-03T13:38:24.416Z,15.48
2023-05-03T13:40:26.089Z,15.30
2023-05-03T13:42:28.651Z,15.17
2023-05-03T13:44:30.246Z,15.11
2023-05-03T13:46:32.490Z,15.04
2023-05-03T13:48:34.205Z,14.86
2023-05-03T13:50:35.846Z,14.80
2023-05-03T13:52:37.416Z,14.75
2023-05-03T13:54:39.072Z,14.68
2023-05-03T13:56:42.991Z,14.53
2023-05-03T13:58:44.905Z,14.42
2023-05-03T14:00:47.004Z,14.21
2023-05-03T14:02:48.731Z,13.94
2023-05-03T14:04:50.489Z,13.84
2023-05-03T14:06:52.493Z,13.83
2023-05-03T14:08:54.814Z,13.82
2023-05-03T14:10:56.705Z,13.75
2023-05-03T14:12:58.529Z,13.62
2023-05-03T14:15:03.515Z,13.45
2023-05-03T14:17:05.241Z,13.48
2023-05-03T14:19:07.482Z,13.30
2023-05-03T14:21:09.402Z,13.34
2023-05-03T14:23:11.248Z,13.38
2023-05-03T14:25:12.918Z,13.54
2023-05-03T14:27:16.816Z,13.69
2023-05-03T14:29:18.503Z,13.69
2023-05-03T14:31:20.169Z,13.76
2023-05-03T14:33:21.852Z,13.52
2023-05-03T14:35:23.505Z,13.57
2023-05-03T14:37:25.120Z,13.58
2023-05-03T14:39:26.684Z,13.68
2023-05-03T14:41:28.327Z,13.77
2023-05-03T14:43:29.943Z,13.85
2023-05-03T14:45:31.504Z,13.88
2023-05-03T14:47:34.704Z,13.91
2023-05-03T14:49:40.740Z,13.89
2023-05-03T14:51:44.323Z,13.83
2023-05-03T14:53:46.019Z,13.72
2023-05-03T14:55:47.759Z,13.52
2023-05-03T14:57:49.445Z,13.26
2023-05-03T14:59:51.079Z,13.18
2023-05-03T15:01:53.732Z,13.22
2023-05-03T15:03:55.491Z,13.17
2023-05-03T15:05:57.134Z,13.08
2023-05-03T15:08:00.167Z,13.03
2023-05-03T15:10:04.097Z,13.05
2023-05-03T15:12:06.130Z,13.01
2023-05-03T15:14:09.143Z,13.02
2023-05-03T15:16:11.439Z,13.04
2023-05-03T15:18:14.752Z,13.01
2023-05-03T15:20:16.816Z,13.03
2023-05-03T15:22:18.621Z,13.07
2023-05-03T15:24:20.553Z,12.82
2023-05-03T15:26:22.618Z,12.75
2023-05-03T15:28:24.201Z,12.74
2023-05-03T15:30:25.807Z,12.81
2023-05-03T15:32:27.339Z,12.76
2023-05-03T15:34:29.677Z,12.53
2023-05-03T15:36:36.597Z,12.53
2023-05-03T15:38:38.592Z,12.49
2023-05-03T15:40:40.855Z,12.63
2023-05-03T15:42:42.434Z,12.69
2023-05-03T15:44:46.943Z,12.71
2023-05-03T15:46:48.677Z,12.77
2023-05-03T15:48:52.413Z,12.84
2023-05-03T15:50:54.029Z,12.91
2023-05-03T15:52:56.998Z,12.96
2023-05-03T15:54:58.573Z,12.94
2023-05-03T15:57:00.276Z,12.97
2023-05-03T15:59:01.988Z,12.94
2023-05-03T16:01:04.148Z,12.95
2023-05-03T16:03:06.037Z,12.90
2023-05-03T16:05:08.632Z,12.87
2023-05-03T16:07:11.364Z,12.93
2023-05-03T16:09:13.048Z,13.01
2023-05-03T16:11:15.131Z,13.09
2023-05-03T16:13:16.830Z,13.09
2023-05-03T16:15:18.566Z,13.02
2023-05-03T16:17:20.304Z,13.10
2023-05-03T16:19:22.436Z,13.13
2023-05-03T16:21:24.042Z,13.14
2023-05-03T16:23:25.842Z,13.02
2023-05-03T16:25:28.792Z,12.73
2023-05-03T16:27:30.928Z,12.53
2023-05-03T16:29:34.442Z,12.56
2023-05-03T16:31:36.200Z,12.60
2023-05-03T16:33:37.819Z,12.64
2023-05-03T16:35:39.478Z,12.61
2023-05-03T16:37:42.023Z,12.64
2023-05-03T16:39:43.568Z,12.66
2023-05-03T16:41:45.172Z,12.68
2023-05-03T16:43:46.813Z,12.73
2023-05-03T16:45:56.130Z,12.82
2023-05-03T16:47:57.920Z,12.81
2023-05-03T16:49:59.486Z,12.75
2023-05-03T16:52:01.333Z,12.75
2023-05-03T16:54:04.525Z,12.76
2023-05-03T16:56:06.851Z,12.77
2023-05-03T16:58:08.428Z,12.72
2023-05-03T17:00:11.139Z,12.72
2023-05-03T17:02:13.100Z,12.82
2023-05-03T17:04:14.824Z,12.75
2023-05-03T17:06:18.342Z,12.56
2023-05-03T17:08:19.952Z,12.42
2023-05-03T17:10:21.532Z,12.39
2023-05-03T17:12:23.798Z,12.39
2023-05-03T17:14:25.533Z,12.37
2023-05-03T17:16:27.327Z,12.37
2023-05-03T17:18:28.911Z,12.32
2023-05-03T17:20:30.931Z,12.37
2023-05-03T17:22:32.879Z,12.44
2023-05-03T17:24:34.919Z,12.52
2023-05-03T17:26:36.957Z,12.62
2023-05-03T17:28:38.973Z,12.74
2023-05-03T17:30:40.552Z,12.80
2023-05-03T17:32:42.160Z,12.82
2023-05-03T17:34:43.824Z,12.80
2023-05-03T17:36:45.379Z,12.86
2023-05-03T17:38:46.993Z,12.88
2023-05-03T17:40:48.749Z,12.87
2023-05-03T17:42:50.563Z,12.81
2023-05-03T17:44:53.217Z,12.78
2023-05-03T17:46:54.866Z,12.71
2023-05-03T17:48:57.659Z,12.76
2023-05-03T17:50:59.259Z,12.76
2023-05-03T17:53:00.998Z,12.59
2023-05-03T17:55:02.806Z,12.44
2023-05-03T17:57:04.374Z,12.26
2023-05-03T17:59:06.058Z,12.28
2023-05-03T18:01:09.210Z,12.31
2023-05-03T18:03:13.337Z,12.24
2023-05-03T18:05:17.796Z,12.10
2023-05-03T18:07:19.391Z,12.00
2023-05-03T18:09:21.081Z,11.85
2023-05-03T18:11:23.078Z,11.83
2023-05-03T18:13:24.766Z,11.76
2023-05-03T18:15:26.431Z,11.74
2023-05-03T18:17:31.015Z,11.73
2023-05-03T18:19:32.622Z,11.77
2023-05-03T18:21:35.565Z,11.70
2023-05-03T18:23:37.433Z,11.74
2023-05-03T18:25:38.986Z,11.83
2023-05-03T18:27:40.631Z,11.98
2023-05-03T18:29:42.215Z,12.03
2023-05-03T18:31:43.821Z,12.08
2023-05-03T18:33:45.850Z,12.10
2023-05-03T18:35:49.287Z,12.18
2023-05-03T18:37:50.872Z,12.22
2023-05-03T18:39:52.542Z,12.26
2023-05-03T18:41:54.186Z,12.30
2023-05-03T18:43:57.433Z,12.30
2023-05-03T18:45:59.076Z,12.27
2023-05-03T18:48:00.838Z,12.24
2023-05-03T18:50:04.325Z,12.32
2023-05-03T18:52:06.124Z,12.34
2023-05-03T18:54:07.700Z,12.27
2023-05-03T18:56:10.091Z,12.18
2023-05-03T18:58:11.711Z,12.08
2023-05-03T19:00:13.925Z,12.00
2023-05-03T19:02:15.683Z,12.02
2023-05-03T19:04:17.479Z,12.06
2023-05-03T19:06:19.200Z,12.13
2023-05-03T19:08:20.801Z,12.24
2023-05-03T19:10:22.502Z,12.33
2023-05-03T19:12:24.152Z,12.37
2023-05-03T19:14:25.721Z,12.42
2023-05-03T19:16:27.941Z,12.50
2023-05-03T19:18:29.547Z,12.56
2023-05-03T19:20:31.088Z,12.59
2023-05-03T19:22:32.682Z,12.60
2023-05-03T19:24:34.250Z,12.64
2023-05-03T19:26:35.788Z,12.63
2023-05-03T19:28:37.471Z,12.58
2023-05-03T19:30:41.376Z,12.56
2023-05-03T19:32:43.051Z,12.40
2023-05-03T19:34:44.699Z,12.39
2023-05-03T19:36:46.287Z,12.43
2023-05-03T19:38:47.894Z,12.49
2023-05-03T19:40:59.058Z,12.49
2023-05-03T19:43:00.843Z,12.45
2023-05-03T19:45:03.590Z,12.43
2023-05-03T19:47:05.270Z,12.41
2023-05-03T19:49:07.206Z,12.39
2023-05-03T19:51:13.524Z,12.43
2023-05-03T19:53:15.172Z,12.43
2023-05-03T19:55:16.914Z,12.43
2023-05-03T19:57:18.689Z,12.41
2023-05-03T19:59:20.367Z,12.44
2023-05-03T20:01:22.126Z,12.22
2023-05-03T20:03:24.262Z,12.18
2023-05-03T20:05:26.050Z,12.19
2023-05-03T20:07:27.611Z,12.12
2023-05-03T20:09:29.215Z,12.10
2023-05-03T20:11:30.787Z,12.16
2023-05-03T20:13:33.312Z,12.21
2023-05-03T20:15:35.680Z,12.22
2023-05-03T20:17:38.495Z,12.27
2023-05-03T20:19:40.117Z,12.31
2023-05-03T20:21:42.226Z,12.29
2023-05-03T20:23:44.109Z,12.32
2023-05-03T20:25:45.672Z,12.32
2023-05-03T20:27:47.321Z,12.32
2023-05-03T20:29:48.943Z,12.33
2023-05-03T20:31:53.717Z,12.33
2023-05-03T20:33:55.364Z,12.33
2023-05-03T20:35:56.971Z,12.35
2023-05-03T20:37:58.619Z,12.33
2023-05-03T20:40:00.326Z,12.16
2023-05-03T20:42:02.482Z,12.08
2023-05-03T20:44:04.583Z,12.03
2023-05-03T20:46:06.296Z,12.01
2023-05-03T20:48:08.157Z,12.03
2023-05-03T20:50:09.977Z,12.00
2023-05-03T20:52:11.632Z,11.83
2023-05-03T20:54:13.287Z,11.79
2023-05-03T20:56:14.937Z,11.81
2023-05-03T20:58:16.548Z,11.88
2023-05-03T21:00:18.200Z,11.91
2023-05-03T21:02:19.794Z,11.77
2023-05-03T21:04:22.001Z,11.72
2023-05-03T21:06:23.593Z,11.67
2023-05-03T21:08:25.367Z,11.70
2023-05-03T21:10:26.972Z,11.76
2023-05-03T21:12:28.635Z,11.79
2023-05-03T21:14:30.391Z,11.67
2023-05-03T21:16:32.034Z,11.61
2023-05-03T21:18:33.732Z,11.59
2023-05-03T21:20:36.782Z,11.61
2023-05-03T21:22:38.374Z,11.63
2023-05-03T21:24:39.955Z,11.57
2023-05-03T21:26:41.857Z,11.56
2023-05-03T21:28:43.446Z,11.55
2023-05-03T21:30:48.306Z,11.55
2023-05-03T21:32:50.732Z,11.56
2023-05-03T21:34:53.730Z,11.50
2023-05-03T21:36:55.415Z,11.39
2023-05-03T21:38:58.022Z,11.31
2023-05-03T21:41:06.710Z,11.37
2023-05-03T21:43:09.878Z,11.44
2023-05-03T21:45:12.086Z,11.48
2023-05-03T21:47:14.578Z,11.47
2023-05-03T21:49:16.150Z,11.46
2023-05-03T21:51:24.997Z,11.51
2023-05-03T21:53:26.837Z,11.54
2023-05-03T21:55:28.683Z,11.60
2023-05-03T21:57:31.900Z,11.60
2023-05-03T21:59:34.718Z,11.51
2023-05-03T22:01:36.960Z,11.46
2023-05-03T22:03:40.107Z,11.45
2023-05-03T22:05:44.834Z,11.37
2023-05-03T22:07:47.703Z,11.29
2023-05-03T22:09:49.524Z,11.27
2023-05-03T22:11:51.089Z,11.32
2023-05-03T22:14:06.719Z,11.23
2023-05-03T22:16:12.345Z,11.19
2023-05-03T22:18:14.670Z,11.16
2023-05-03T22:20:16.403Z,10.83
2023-05-03T22:22:18.017Z,10.62
2023-05-03T22:24:19.618Z,10.45
2023-05-03T22:26:21.231Z,10.47
2023-05-03T22:28:22.944Z,10.51
2023-05-03T22:30:24.604Z,10.51
2023-05-03T22:32:26.206Z,10.49
2023-05-03T22:34:27.908Z,10.63
2023-05-03T22:36:29.529Z,10.64
2023-05-03T22:38:31.390Z,10.69
2023-05-03T22:40:33.384Z,10.69
2023-05-03T22:42:35.407Z,10.81
2023-05-03T22:44:37.277Z,10.85
2023-05-03T22:46:38.967Z,10.91
2023-05-03T22:48:40.525Z,11.05
2023-05-03T22:50:42.149Z,11.19
2023-05-03T22:52:43.882Z,11.27
2023-05-03T22:54:45.681Z,11.03
2023-05-03T22:56:47.236Z,11.10
2023-05-03T22:58:48.908Z,11.20
2023-05-03T23:00:50.827Z,11.02
2023-05-03T23:02:52.509Z,10.85
2023-05-03T23:04:54.920Z,10.79
2023-05-03T23:06:56.727Z,10.76
2023-05-03T23:08:58.546Z,10.89
2023-05-03T23:11:00.153Z,10.97
2023-05-03T23:13:02.025Z,11.01
2023-05-03T23:15:04.425Z,11.10
2023-05-03T23:17:06.359Z,11.10
2023-05-03T23:19:08.364Z,11.21
2023-05-03T23:21:10.217Z,11.32
2023-05-03T23:23:12.037Z,11.40
2023-05-03T23:25:16.146Z,11.45
2023-05-03T23:27:17.684Z,11.57
2023-05-03T23:29:19.794Z,11.66
2023-05-03T23:31:21.959Z,11.71
2023-05-03T23:33:23.956Z,11.77
2023-05-03T23:35:25.984Z,11.79
2023-05-03T23:37:27.703Z,11.83
2023-05-03T23:39:29.286Z,11.91
2023-05-03T23:41:30.945Z,11.91
2023-05-03T23:43:32.699Z,11.94
2023-05-03T23:45:34.248Z,11.88
2023-05-03T23:47:36.956Z,11.88
2023-05-03T23:49:39.720Z,11.80
2023-05-03T23:51:41.340Z,11.51
2023-05-03T23:53:42.929Z,11.46
2023-05-03T23:55:44.588Z,11.16
2023-05-03T23:57:46.421Z,11.03
2023-05-03T23:59:47.989Z,10.92
